createdAt,value
2019-06-07T00:00:37.294Z,89.37
2019-06-07T00:05:22.235Z,89.90
2019-06-07T00:10:36.142Z,89.92
2019-06-07T00:15:32.116Z,89.00
2019-06-07T00:20:36.856Z,89.83
2019-06-07T00:25:40.891Z,90.05
2019-06-07T00:30:51.760Z,90.40
2019-06-07T00:35:51.120Z,90.24
2019-06-07T00:40:55.182Z,90.08
2019-06-07T00:45:59.774Z,90.55
2019-06-07T00:51:03.890Z,90.94
2019-06-07T00:56:08.048Z,92.35
2019-06-07T01:01:13.104Z,95.02
2019-06-07T01:06:21.352Z,95.46
2019-06-07T01:11:26.634Z,96.60
2019-06-07T01:16:55.687Z,99.06
2019-06-07T01:21:44.001Z,100.00
2019-06-07T01:26:48.605Z,100.00
2019-06-07T01:31:52.672Z,100.00
2019-06-07T01:36:57.796Z,100.00
2019-06-07T01:42:02.425Z,100.00
2019-06-07T01:47:08.317Z,100.00
2019-06-07T01:52:12.863Z,100.00
2019-06-07T01:57:36.531Z,100.00
2019-06-07T02:02:28.021Z,100.00
2019-06-07T02:07:32.915Z,100.00
2019-06-07T02:12:42.756Z,100.00
2019-06-07T02:17:40.768Z,100.00
2019-06-07T02:22:44.763Z,100.00
2019-06-07T02:27:48.809Z,100.00
2019-06-07T02:32:54.478Z,100.00
2019-06-07T02:38:00.378Z,100.00
2019-06-07T02:43:05.149Z,100.00
2019-06-07T02:48:09.752Z,100.00
2019-06-07T02:53:14.863Z,100.00
2019-06-07T02:58:20.293Z,100.00
2019-06-07T03:03:24.728Z,100.00
2019-06-07T03:08:33.226Z,99.46
2019-06-07T03:13:40.798Z,99.29
2019-06-07T03:18:47.812Z,99.80
2019-06-07T03:23:57.082Z,99.45
2019-06-07T03:29:04.355Z,98.20
2019-06-07T03:34:08.655Z,95.83
2019-06-07T03:39:12.751Z,95.88
2019-06-07T03:44:16.802Z,92.86
2019-06-07T03:49:24.154Z,93.19
2019-06-07T03:54:29.535Z,91.86
2019-06-07T03:59:40.852Z,91.33
2019-06-07T04:04:44.575Z,91.76
2019-06-07T04:09:49.853Z,91.87
2019-06-07T04:14:53.931Z,91.20
2019-06-07T04:19:58.344Z,87.61
2019-06-07T04:25:06.277Z,85.09
2019-06-07T04:30:10.689Z,72.44
2019-06-07T04:35:14.725Z,54.72
2019-06-07T04:40:18.810Z,44.96
2019-06-07T04:45:34.034Z,41.02
2019-06-07T04:50:34.246Z,40.80
2019-06-07T04:55:40.317Z,36.06
2019-06-07T05:00:52.753Z,34.46
2019-06-07T05:05:51.152Z,34.07
2019-06-07T05:10:55.705Z,31.56
2019-06-07T05:15:59.871Z,29.55
2019-06-07T05:21:04.275Z,29.02
2019-06-07T05:26:08.614Z,28.51
2019-06-07T05:31:13.058Z,26.34
2019-06-07T05:36:17.724Z,27.51
2019-06-07T05:41:22.420Z,31.14
2019-06-07T05:46:26.725Z,27.51
2019-06-07T05:51:32.245Z,34.63
2019-06-07T05:56:38.961Z,30.01
2019-06-07T06:01:52.285Z,26.51
2019-06-07T06:06:55.508Z,27.24
2019-06-07T06:12:03.680Z,28.84
2019-06-07T06:17:09.898Z,25.56
2019-06-07T06:22:19.703Z,23.12
2019-06-07T06:28:03.142Z,23.84
2019-06-07T06:32:53.107Z,22.54
2019-06-07T06:38:06.054Z,24.52
2019-06-07T06:43:32.290Z,23.63
2019-06-07T06:48:40.774Z,25.64
2019-06-07T06:53:46.886Z,21.39
2019-06-07T06:59:28.288Z,20.97
2019-06-07T07:04:11.244Z,21.27
2019-06-07T07:09:04.643Z,20.26
2019-06-07T07:14:09.345Z,20.51
2019-06-07T07:19:13.378Z,21.80
2019-06-07T07:24:21.544Z,18.73
2019-06-07T07:29:23.689Z,18.82
2019-06-07T07:34:35.698Z,19.87
2019-06-07T07:39:33.633Z,20.39
2019-06-07T07:44:37.838Z,20.33
2019-06-07T07:49:41.854Z,18.71
2019-06-07T07:54:46.803Z,20.06
2019-06-07T08:00:11.336Z,20.57
2019-06-07T08:10:04.322Z,21.80
2019-06-07T08:15:08.767Z,21.00
2019-06-07T08:20:14.324Z,20.61
2019-06-07T08:25:19.795Z,21.27
2019-06-07T08:30:48.145Z,20.30
2019-06-07T08:36:03.760Z,20.39
2019-06-07T08:40:35.591Z,22.98
2019-06-07T08:45:39.963Z,22.04
2019-06-07T08:50:44.032Z,22.26
2019-06-07T08:55:48.095Z,24.77
2019-06-07T09:00:53.590Z,24.48
2019-06-07T09:06:06.172Z,26.01
2019-06-07T09:11:10.252Z,23.84
2019-06-07T09:16:10.015Z,24.26
2019-06-07T09:21:14.179Z,23.21
2019-06-07T09:26:19.008Z,25.33
2019-06-07T09:31:23.301Z,27.64
2019-06-07T09:36:28.313Z,25.16
2019-06-07T09:41:46.785Z,28.21
2019-06-07T09:46:38.582Z,27.72
2019-06-07T09:51:42.608Z,27.19
2019-06-07T09:56:46.695Z,26.17
2019-06-07T10:01:50.804Z,26.40
2019-06-07T10:06:54.903Z,29.48
2019-06-07T10:12:00.308Z,30.07
2019-06-07T10:17:05.066Z,32.32
2019-06-07T10:22:09.565Z,35.52
2019-06-07T10:27:13.891Z,38.77
2019-06-07T10:32:17.996Z,40.32
2019-06-07T10:37:22.174Z,38.63
2019-06-07T10:42:26.283Z,38.32
2019-06-07T10:47:30.400Z,33.37
2019-06-07T10:52:34.826Z,33.90
2019-06-07T10:57:38.877Z,32.48
2019-06-07T11:02:43.051Z,34.13
2019-06-07T11:07:47.222Z,34.70
2019-06-07T11:12:51.345Z,31.97
2019-06-07T11:17:55.857Z,34.04
2019-06-07T11:23:00.140Z,36.36
2019-06-07T11:28:04.431Z,35.15
2019-06-07T11:33:27.104Z,35.21
2019-06-07T11:38:32.065Z,34.29
2019-06-07T11:43:36.059Z,35.85
2019-06-07T11:48:40.106Z,36.38
2019-06-07T11:53:44.765Z,36.21
2019-06-07T11:58:48.893Z,35.66
2019-06-07T12:03:53.480Z,34.63
2019-06-07T12:08:57.575Z,37.05
2019-06-07T12:14:01.668Z,37.62
2019-06-07T12:19:05.718Z,36.50
2019-06-07T12:24:10.394Z,37.45
2019-06-07T12:29:14.926Z,36.58
2019-06-07T12:34:19.525Z,37.73
2019-06-07T12:39:24.100Z,38.09
2019-06-07T12:44:28.190Z,36.60
2019-06-07T12:49:32.276Z,36.33
2019-06-07T12:54:39.383Z,36.58
2019-06-07T12:59:43.400Z,37.16
2019-06-07T13:04:47.491Z,37.82
2019-06-07T13:09:51.585Z,38.73
2019-06-07T13:14:55.705Z,39.71
2019-06-07T13:19:59.823Z,39.05
2019-06-07T13:25:04.371Z,37.71
2019-06-07T13:30:10.040Z,39.53
2019-06-07T13:35:18.382Z,36.54
2019-06-07T13:40:23.201Z,40.42
2019-06-07T13:45:28.115Z,36.65
2019-06-07T13:50:35.127Z,38.91
2019-06-07T13:55:39.932Z,37.54
2019-06-07T14:00:44.270Z,36.73
2019-06-07T14:05:48.325Z,36.98
2019-06-07T14:10:52.361Z,36.06
2019-06-07T14:15:56.433Z,36.65
2019-06-07T14:21:00.471Z,35.94
2019-06-07T14:26:04.751Z,36.11
2019-06-07T14:31:08.860Z,35.96
2019-06-07T14:36:12.866Z,36.57
2019-06-07T14:41:16.906Z,37.08
2019-06-07T14:46:21.004Z,35.60
2019-06-07T14:51:26.215Z,35.40
2019-06-07T14:56:31.380Z,35.89
2019-06-07T15:01:35.758Z,35.97
2019-06-07T15:06:39.792Z,35.18
2019-06-07T15:11:43.827Z,34.54
2019-06-07T15:16:47.897Z,36.10
2019-06-07T15:21:52.275Z,35.81
2019-06-07T15:26:56.411Z,36.30
2019-06-07T15:32:00.447Z,35.98
2019-06-07T15:37:04.481Z,35.26
2019-06-07T15:42:08.588Z,35.82
2019-06-07T15:47:12.695Z,35.50
2019-06-07T15:52:16.743Z,33.91
2019-06-07T15:57:22.993Z,34.52
2019-06-07T16:02:27.148Z,35.48
2019-06-07T16:07:31.991Z,34.14
2019-06-07T16:12:36.759Z,36.62
2019-06-07T16:17:42.027Z,36.18
2019-06-07T16:22:47.245Z,35.91
2019-06-07T16:27:51.365Z,35.73
2019-06-07T16:32:55.649Z,37.41
2019-06-07T16:37:59.677Z,36.83
2019-06-07T16:43:16.822Z,36.59
2019-06-07T16:48:10.734Z,37.04
2019-06-07T16:53:14.771Z,37.93
2019-06-07T16:58:19.159Z,38.01
2019-06-07T17:03:23.157Z,38.48
2019-06-07T17:08:27.189Z,38.68
2019-06-07T17:13:33.717Z,38.49
2019-06-07T17:18:39.002Z,39.04
2019-06-07T17:23:45.318Z,39.79
2019-06-07T17:28:50.102Z,40.43
2019-06-07T17:33:54.971Z,40.77
2019-06-07T17:39:01.178Z,41.57
2019-06-07T17:44:05.733Z,42.63
2019-06-07T17:49:10.245Z,43.00
2019-06-07T17:54:14.286Z,43.11
2019-06-07T17:59:18.500Z,43.78
2019-06-07T18:04:22.630Z,44.92
2019-06-07T18:09:27.496Z,44.35
2019-06-07T18:14:31.906Z,46.70
2019-06-07T18:19:36.726Z,47.11
2019-06-07T18:24:40.842Z,47.06
2019-06-07T18:29:45.024Z,46.53
2019-06-07T18:34:49.177Z,47.81
2019-06-07T18:39:53.288Z,48.86
2019-06-07T18:44:57.522Z,49.86
2019-06-07T18:50:02.132Z,51.04
2019-06-07T18:55:06.257Z,52.42
2019-06-07T19:00:11.249Z,55.00
2019-06-07T19:05:16.042Z,55.21
2019-06-07T19:10:22.104Z,56.15
2019-06-07T19:15:26.545Z,58.04
2019-06-07T19:20:31.316Z,58.66
2019-06-07T19:25:35.699Z,60.55
2019-06-07T19:30:40.433Z,60.33
2019-06-07T19:35:44.660Z,60.82
2019-06-07T19:40:48.888Z,61.79
2019-06-07T19:45:54.060Z,61.70
2019-06-07T19:50:59.015Z,62.56
2019-06-07T19:56:03.567Z,63.52
2019-06-07T20:01:08.460Z,63.79
2019-06-07T20:06:12.621Z,64.34
2019-06-07T20:11:17.301Z,65.39
2019-06-07T20:16:21.568Z,66.80
2019-06-07T20:21:25.770Z,68.25
2019-06-07T20:26:30.057Z,69.90
2019-06-07T20:31:34.329Z,70.11
2019-06-07T20:36:38.867Z,70.68
2019-06-07T20:41:43.207Z,71.36
2019-06-07T20:46:47.325Z,72.21
2019-06-07T20:51:51.424Z,72.90
2019-06-07T20:56:55.489Z,74.50
2019-06-07T21:02:00.735Z,74.29
2019-06-07T21:07:10.201Z,74.74
2019-06-07T21:12:14.443Z,76.40
2019-06-07T21:17:23.793Z,76.50
2019-06-07T21:22:29.490Z,76.95
2019-06-07T21:27:37.678Z,77.92
2019-06-07T21:32:45.005Z,78.76
2019-06-07T21:37:52.570Z,79.47
2019-06-07T21:42:58.982Z,80.06
2019-06-07T21:48:05.045Z,81.13
2019-06-07T21:53:10.902Z,81.85
2019-06-07T21:58:14.992Z,82.74
2019-06-07T22:03:21.693Z,83.88
2019-06-07T22:08:27.474Z,84.33
2019-06-07T22:13:31.599Z,85.88
2019-06-07T22:18:38.190Z,86.34
2019-06-07T22:23:43.784Z,86.94
2019-06-07T22:28:48.008Z,87.68
2019-06-07T22:33:56.165Z,89.04
2019-06-07T22:39:04.452Z,90.59
2019-06-07T22:44:12.800Z,91.57
2019-06-07T22:49:19.853Z,92.45
2019-06-07T22:54:26.577Z,92.66
2019-06-07T22:59:30.924Z,93.62
2019-06-07T23:04:34.956Z,95.15
2019-06-07T23:09:40.166Z,95.21
2019-06-07T23:14:44.694Z,96.38
2019-06-07T23:19:48.728Z,96.40
2019-06-07T23:24:53.195Z,97.28
2019-06-07T23:29:57.357Z,98.49
2019-06-07T23:35:03.026Z,98.70
2019-06-07T23:40:08.394Z,99.24
2019-06-07T23:45:13.837Z,100.00
2019-06-07T23:50:19.883Z,100.00
2019-06-07T23:55:26.576Z,100.00
